Gene Autry, Oklahoma
Current Conditions -  °F | °C
As of 1:35 AM on Sunday 23 Nov 2014 (Local Time) from KADM Reporting Station
Overcast Overcast  
Wind Chill: 58°   Ceiling: 800
Heat Index: 58°   Visibility: 10mi
Dew Point: 58°   Wind: 6mph
Humidity: 99%   Direction: 170°S
Pressure: 29.62"   Gusts: NA
Location:  34.28°N, 97.04°W
Report Text: KADM 230735Z AUTO 17005KT 10SM BKN008 OVC013 15/15 A2962 RMK AO2 P0005 T01460145
Loading
Personal Weather Stations






























Interactive Weather Map New forecast layout! Learn more

10-Day Weather Forecast

Advertisements
Track Severe Weather on mobile